createdAt,value
2022-09-02T00:01:38.125Z,22.30
2022-09-02T00:04:14.076Z,22.20
2022-09-02T00:06:43.524Z,22.20
2022-09-02T00:09:13.696Z,22.00
2022-09-02T00:11:42.888Z,22.20
2022-09-02T00:14:18.125Z,22.20
2022-09-02T00:16:51.173Z,22.20
2022-09-02T00:19:21.414Z,22.10
2022-09-02T00:21:49.188Z,22.10
2022-09-02T00:24:17.444Z,22.10
2022-09-02T00:26:45.486Z,22.10
2022-09-02T00:29:14.578Z,22.00
2022-09-02T00:31:46.204Z,22.00
2022-09-02T00:34:13.990Z,21.90
2022-09-02T00:36:42.164Z,22.00
2022-09-02T00:39:09.395Z,22.00
2022-09-02T00:41:43.399Z,22.00
2022-09-02T00:44:14.168Z,22.00
2022-09-02T00:46:41.440Z,22.00
2022-09-02T00:49:16.484Z,22.00
2022-09-02T00:51:51.226Z,22.00
2022-09-02T00:54:25.301Z,21.90
2022-09-02T00:56:53.881Z,21.90
2022-09-02T00:59:45.471Z,21.90
2022-09-02T01:02:13.658Z,22.00
2022-09-02T01:04:43.067Z,21.90
2022-09-02T01:07:11.215Z,21.90
2022-09-02T01:09:40.998Z,21.90
2022-09-02T01:12:08.924Z,21.80
2022-09-02T01:14:36.021Z,21.80
2022-09-02T01:17:07.066Z,21.80
2022-09-02T01:19:42.269Z,21.80
2022-09-02T01:22:22.102Z,21.80
2022-09-02T01:24:50.681Z,21.80
2022-09-02T01:27:23.515Z,21.80
2022-09-02T01:29:56.146Z,21.80
2022-09-02T01:32:24.207Z,21.70
2022-09-02T01:34:51.885Z,21.70
2022-09-02T01:37:19.741Z,21.70
2022-09-02T01:39:47.281Z,21.70
2022-09-02T01:42:17.085Z,21.70
2022-09-02T01:44:44.492Z,21.70
2022-09-02T01:47:13.974Z,21.70
2022-09-02T01:49:41.902Z,21.70
2022-09-02T01:52:10.178Z,21.70
2022-09-02T01:54:39.124Z,21.60
2022-09-02T01:57:09.075Z,21.70
2022-09-02T01:59:36.289Z,21.70
2022-09-02T02:02:04.680Z,21.70
2022-09-02T02:04:34.277Z,21.60
2022-09-02T02:07:04.545Z,21.60
2022-09-02T02:09:31.710Z,21.60
2022-09-02T02:11:59.176Z,21.60
2022-09-02T02:14:30.122Z,21.60
2022-09-02T02:16:57.317Z,21.60
2022-09-02T02:19:24.585Z,21.60
2022-09-02T02:21:51.682Z,21.50
2022-09-02T02:24:19.525Z,21.50
2022-09-02T02:26:46.583Z,21.50
2022-09-02T02:29:14.433Z,21.50
2022-09-02T02:31:42.251Z,21.50
2022-09-02T02:34:10.684Z,21.50
2022-09-02T02:36:39.524Z,21.50
2022-09-02T02:39:10.186Z,21.50
2022-09-02T02:41:40.624Z,21.50
2022-09-02T02:44:13.133Z,21.50
2022-09-02T02:46:43.209Z,21.50
2022-09-02T02:49:10.552Z,21.50
2022-09-02T02:51:38.701Z,21.50
2022-09-02T02:54:06.775Z,21.50
2022-09-02T02:56:34.157Z,21.50
2022-09-02T02:59:03.813Z,21.50
2022-09-02T03:01:33.783Z,21.50
2022-09-02T03:04:01.396Z,21.40
2022-09-02T03:06:30.196Z,21.50
2022-09-02T03:08:57.901Z,21.40
2022-09-02T03:11:29.853Z,21.40
2022-09-02T03:13:57.490Z,21.50
2022-09-02T03:16:24.731Z,21.40
2022-09-02T03:18:54.153Z,21.50
2022-09-02T03:21:22.180Z,21.40
2022-09-02T03:23:50.307Z,21.50
2022-09-02T03:26:20.583Z,21.40
2022-09-02T03:28:49.479Z,21.50
2022-09-02T03:31:21.015Z,21.50
2022-09-02T03:33:48.354Z,21.50
2022-09-02T03:36:46.856Z,21.50
2022-09-02T03:39:16.652Z,21.40
2022-09-02T03:41:49.187Z,21.40
2022-09-02T03:44:17.193Z,21.30
2022-09-02T03:46:45.688Z,21.30
2022-09-02T03:49:12.894Z,21.40
2022-09-02T03:51:41.717Z,21.40
2022-09-02T03:54:10.316Z,21.40
2022-09-02T03:56:38.928Z,21.40
2022-09-02T03:59:08.160Z,21.40
2022-09-02T04:01:36.037Z,21.40
2022-09-02T04:04:06.181Z,21.40
2022-09-02T04:06:35.760Z,21.50
2022-09-02T04:09:05.077Z,21.40
2022-09-02T04:11:33.632Z,21.40
2022-09-02T04:14:00.727Z,21.40
2022-09-02T04:16:30.995Z,21.30
2022-09-02T04:19:04.345Z,21.30
2022-09-02T04:21:36.983Z,21.40
2022-09-02T04:24:09.625Z,21.40
2022-09-02T04:26:44.899Z,21.40
2022-09-02T04:29:14.453Z,21.40
2022-09-02T04:31:43.109Z,21.50
2022-09-02T04:34:10.946Z,21.40
2022-09-02T04:36:38.296Z,21.40
2022-09-02T04:39:09.467Z,21.40
2022-09-02T04:41:38.153Z,21.40
2022-09-02T04:44:08.910Z,21.40
2022-09-02T04:46:40.193Z,21.40
2022-09-02T04:49:11.513Z,21.40
2022-09-02T04:51:40.992Z,21.40
2022-09-02T04:54:11.589Z,21.30
2022-09-02T04:56:43.159Z,21.30
2022-09-02T04:59:13.881Z,21.30
2022-09-02T05:01:47.997Z,21.30
2022-09-02T05:04:20.081Z,21.30
2022-09-02T05:06:50.531Z,21.30
2022-09-02T05:09:19.664Z,21.30
2022-09-02T05:11:52.480Z,21.30
2022-09-02T05:14:27.731Z,21.30
2022-09-02T05:16:57.443Z,21.30
2022-09-02T05:19:25.090Z,21.30
2022-09-02T05:21:55.594Z,21.30
2022-09-02T05:24:29.400Z,21.30
2022-09-02T05:27:00.962Z,21.30
2022-09-02T05:29:30.810Z,21.30
2022-09-02T05:31:58.175Z,21.30
2022-09-02T05:34:27.264Z,21.30
2022-09-02T05:36:58.218Z,21.30
2022-09-02T05:39:29.939Z,21.30
2022-09-02T05:41:57.823Z,21.30
2022-09-02T05:44:25.948Z,21.30
2022-09-02T05:46:53.643Z,21.30
2022-09-02T05:49:23.431Z,21.30
2022-09-02T05:52:01.918Z,21.30
2022-09-02T05:54:37.238Z,21.30
2022-09-02T05:57:14.135Z,21.30
2022-09-02T05:59:57.025Z,21.40
2022-09-02T06:02:29.698Z,21.30
2022-09-02T06:04:58.559Z,21.40
2022-09-02T06:07:26.438Z,21.50
2022-09-02T06:09:56.746Z,21.50
2022-09-02T06:12:26.344Z,21.50
2022-09-02T06:14:54.489Z,21.60
2022-09-02T06:17:23.385Z,21.50
2022-09-02T06:19:53.242Z,21.40
2022-09-02T06:22:24.392Z,21.50
2022-09-02T06:24:54.121Z,21.50
2022-09-02T06:27:25.588Z,21.40
2022-09-02T06:29:54.331Z,21.40
2022-09-02T06:32:24.366Z,21.40
2022-09-02T06:34:58.273Z,21.40
2022-09-02T06:37:26.755Z,21.40
2022-09-02T06:39:55.935Z,21.50
2022-09-02T06:42:26.921Z,21.50
2022-09-02T06:45:31.309Z,21.50
2022-09-02T06:48:01.955Z,21.60
2022-09-02T06:50:33.314Z,21.60
2022-09-02T06:53:02.037Z,21.70
2022-09-02T06:55:30.683Z,21.70
2022-09-02T06:57:57.863Z,21.80
2022-09-02T07:00:27.518Z,21.80
2022-09-02T07:03:14.031Z,21.80
2022-09-02T07:05:42.696Z,21.90
2022-09-02T07:08:55.076Z,22.00
2022-09-02T07:11:24.312Z,22.10
2022-09-02T07:13:54.443Z,22.10
2022-09-02T07:16:26.852Z,22.20
2022-09-02T07:18:55.871Z,22.20
2022-09-02T07:21:23.195Z,22.20
2022-09-02T07:23:50.675Z,22.20
2022-09-02T07:26:19.557Z,22.30
2022-09-02T07:28:47.917Z,22.40
2022-09-02T07:31:17.394Z,22.40
2022-09-02T07:33:49.869Z,22.40
2022-09-02T07:36:21.507Z,22.50
2022-09-02T07:38:49.621Z,22.50
2022-09-02T07:41:16.874Z,22.60
2022-09-02T07:43:46.321Z,22.70
2022-09-02T07:46:15.895Z,22.70
2022-09-02T07:48:44.035Z,22.70
2022-09-02T07:51:12.782Z,22.70
2022-09-02T07:53:40.540Z,22.70
2022-09-02T07:56:08.390Z,22.80
2022-09-02T07:58:36.192Z,22.90
2022-09-02T08:01:04.146Z,22.90
2022-09-02T08:03:31.433Z,22.90
2022-09-02T08:06:03.392Z,23.00
2022-09-02T08:08:30.872Z,23.10
2022-09-02T08:10:58.010Z,23.20
2022-09-02T08:13:27.161Z,23.20
2022-09-02T08:15:55.260Z,23.40
2022-09-02T08:18:23.068Z,23.50
2022-09-02T08:20:50.471Z,23.70
2022-09-02T08:23:35.538Z,23.70
2022-09-02T08:26:05.705Z,23.80
2022-09-02T08:28:33.377Z,23.90
2022-09-02T08:31:05.096Z,24.00
2022-09-02T08:33:32.109Z,24.20
2022-09-02T08:36:04.610Z,24.30
2022-09-02T08:38:32.192Z,24.40
2022-09-02T08:41:00.145Z,24.50
2022-09-02T08:43:41.737Z,24.60
2022-09-02T08:46:16.603Z,24.70
2022-09-02T08:49:10.687Z,24.80
2022-09-02T08:51:53.351Z,24.90
2022-09-02T08:54:47.230Z,25.00
2022-09-02T08:57:14.604Z,25.10
2022-09-02T08:59:43.874Z,25.10
2022-09-02T09:02:28.971Z,25.20
2022-09-02T09:04:58.688Z,25.30
2022-09-02T09:07:52.877Z,25.40
2022-09-02T09:10:36.199Z,25.50
2022-09-02T09:13:43.487Z,25.50
2022-09-02T09:16:30.307Z,25.70
2022-09-02T09:19:37.399Z,25.70
2022-09-02T09:22:05.376Z,25.80
2022-09-02T09:24:39.542Z,25.90
2022-09-02T09:27:12.740Z,25.90
2022-09-02T09:29:40.146Z,26.00
2022-09-02T09:32:34.016Z,26.10
2022-09-02T09:35:05.063Z,26.10
2022-09-02T09:37:38.425Z,26.10
2022-09-02T09:40:21.856Z,26.10
2022-09-02T09:45:44.771Z,26.30
2022-09-02T09:48:18.335Z,26.30
2022-09-02T09:50:57.671Z,26.30
2022-09-02T09:53:29.219Z,26.30
2022-09-02T09:56:07.697Z,26.40
2022-09-02T09:58:39.199Z,26.50
2022-09-02T10:01:12.781Z,26.50
2022-09-02T10:03:49.166Z,26.70
2022-09-02T10:06:31.198Z,26.70
2022-09-02T10:08:59.289Z,26.80
2022-09-02T10:11:29.130Z,26.80
2022-09-02T10:14:06.462Z,26.80
2022-09-02T10:16:51.954Z,26.80
2022-09-02T10:19:43.959Z,26.90
2022-09-02T10:22:40.048Z,26.90
2022-09-02T10:25:49.777Z,27.00
2022-09-02T10:28:26.518Z,27.10
2022-09-02T10:31:19.697Z,27.10
2022-09-02T10:34:13.890Z,27.20
2022-09-02T10:36:59.902Z,27.20
2022-09-02T10:39:51.051Z,27.30
2022-09-02T10:42:36.064Z,27.40
2022-09-02T10:45:24.599Z,27.50
2022-09-02T10:48:18.908Z,27.50
2022-09-02T10:51:10.009Z,27.70
2022-09-02T10:53:55.667Z,27.80
2022-09-02T10:56:27.189Z,27.80
2022-09-02T10:59:05.790Z,27.90
2022-09-02T11:01:46.974Z,27.90
2022-09-02T11:04:25.057Z,28.00
2022-09-02T11:07:08.887Z,28.10
2022-09-02T11:09:45.096Z,28.10
2022-09-02T11:12:17.369Z,28.20
2022-09-02T11:15:23.760Z,28.30
2022-09-02T11:17:56.893Z,28.50
2022-09-02T11:20:45.203Z,28.50
2022-09-02T11:23:41.803Z,28.50
2022-09-02T11:26:17.140Z,28.70
2022-09-02T11:29:04.627Z,28.70
2022-09-02T11:31:45.131Z,28.60
2022-09-02T11:34:35.006Z,28.60
2022-09-02T11:37:07.999Z,28.70
2022-09-02T11:40:02.309Z,28.80
2022-09-02T11:43:17.319Z,28.90
2022-09-02T11:46:16.760Z,29.00
2022-09-02T11:48:50.850Z,29.20
2022-09-02T11:51:25.749Z,29.30
2022-09-02T11:53:56.042Z,29.30
2022-09-02T11:56:30.174Z,29.40
2022-09-02T11:58:58.025Z,29.40
2022-09-02T12:01:43.590Z,29.50
2022-09-02T12:07:09.106Z,29.40
2022-09-02T12:09:50.812Z,29.40
2022-09-02T12:12:48.854Z,29.50
2022-09-02T12:15:19.904Z,29.60
2022-09-02T12:17:50.408Z,29.70
2022-09-02T12:20:36.404Z,29.80
2022-09-02T12:23:03.786Z,29.70
2022-09-02T12:25:34.166Z,29.60
2022-09-02T12:28:27.286Z,29.50
2022-09-02T12:31:02.246Z,29.70
2022-09-02T12:33:31.778Z,29.90
2022-09-02T12:36:01.138Z,30.10
2022-09-02T12:38:31.045Z,30.10
2022-09-02T12:41:07.830Z,30.00
2022-09-02T12:43:48.342Z,30.20
2022-09-02T12:46:34.174Z,30.30
2022-09-02T12:49:24.332Z,30.20
2022-09-02T12:52:02.580Z,30.30
2022-09-02T12:54:43.497Z,30.50
2022-09-02T12:57:11.496Z,30.60
2022-09-02T12:59:41.341Z,30.50
2022-09-02T13:02:43.721Z,30.40
2022-09-02T13:05:50.348Z,30.10
2022-09-02T13:08:36.737Z,29.90
2022-09-02T13:11:07.621Z,29.90
2022-09-02T13:14:01.839Z,29.60
2022-09-02T13:16:37.837Z,29.60
2022-09-02T13:19:20.948Z,30.00
2022-09-02T13:22:06.400Z,30.20
2022-09-02T13:24:37.461Z,30.10
2022-09-02T13:27:23.237Z,30.10
2022-09-02T13:30:14.050Z,30.20
2022-09-02T13:32:41.415Z,30.40
2022-09-02T13:35:23.702Z,30.50
2022-09-02T13:38:03.506Z,30.80
2022-09-02T13:40:36.325Z,30.90
2022-09-02T13:43:34.090Z,31.00
2022-09-02T13:46:02.551Z,31.10
2022-09-02T13:48:33.081Z,31.30
2022-09-02T13:51:12.163Z,31.40
2022-09-02T13:54:05.485Z,31.40
2022-09-02T13:56:31.084Z,31.50
2022-09-02T13:58:58.683Z,31.60
2022-09-02T14:01:38.152Z,31.70
2022-09-02T14:04:11.889Z,31.80
2022-09-02T14:06:46.874Z,31.80
2022-09-02T14:09:29.027Z,31.90
2022-09-02T14:11:56.786Z,32.00
2022-09-02T14:14:25.920Z,32.10
2022-09-02T14:17:13.059Z,31.90
2022-09-02T14:19:40.277Z,31.80
2022-09-02T14:22:24.306Z,31.90
2022-09-02T14:24:51.580Z,32.00
2022-09-02T14:27:23.258Z,32.20
2022-09-02T14:29:56.832Z,32.30
2022-09-02T14:32:28.657Z,32.40
2022-09-02T14:35:30.608Z,32.60
2022-09-02T14:37:59.574Z,32.80
2022-09-02T14:40:43.501Z,32.80
2022-09-02T14:43:15.153Z,32.50
2022-09-02T14:45:49.396Z,32.50
2022-09-02T14:48:26.781Z,32.50
2022-09-02T14:51:06.525Z,32.50
2022-09-02T14:53:37.575Z,32.30
2022-09-02T14:56:06.249Z,32.10
2022-09-02T14:58:33.603Z,31.90
2022-09-02T15:01:02.342Z,31.80
2022-09-02T15:03:31.210Z,31.60
2022-09-02T15:05:58.426Z,31.40
2022-09-02T15:08:25.544Z,31.30
2022-09-02T15:10:54.550Z,31.50
2022-09-02T15:13:29.607Z,31.70
2022-09-02T15:16:00.838Z,31.80
2022-09-02T15:18:28.162Z,31.80
2022-09-02T15:20:55.707Z,31.80
2022-09-02T15:23:23.371Z,31.70
2022-09-02T15:25:50.774Z,31.50
2022-09-02T15:28:20.265Z,31.20
2022-09-02T15:30:47.346Z,31.00
2022-09-02T15:33:17.632Z,30.80
2022-09-02T15:35:47.356Z,30.50
2022-09-02T15:38:14.669Z,30.60
2022-09-02T15:40:41.634Z,30.80
2022-09-02T15:43:08.805Z,31.00
2022-09-02T15:45:48.202Z,31.10
2022-09-02T15:48:16.377Z,31.10
2022-09-02T15:50:46.383Z,31.00
2022-09-02T15:53:15.177Z,30.80
2022-09-02T15:55:42.342Z,30.80
2022-09-02T15:58:10.359Z,30.90
2022-09-02T16:00:37.721Z,30.50
2022-09-02T16:03:04.811Z,30.30
2022-09-02T16:05:32.399Z,30.40
2022-09-02T16:07:59.771Z,30.20
2022-09-02T16:10:27.070Z,29.80
2022-09-02T16:12:53.999Z,29.50
2022-09-02T16:15:21.185Z,29.60
2022-09-02T16:17:48.206Z,29.90
2022-09-02T16:20:21.244Z,29.90
2022-09-02T16:22:49.071Z,30.10
2022-09-02T16:25:16.001Z,30.30
2022-09-02T16:27:56.399Z,30.50
2022-09-02T16:30:23.939Z,30.70
2022-09-02T16:32:52.340Z,30.50
2022-09-02T16:35:19.511Z,30.40
2022-09-02T16:37:47.111Z,30.30
2022-09-02T16:40:21.635Z,30.40
2022-09-02T16:42:49.622Z,30.40
2022-09-02T16:45:16.842Z,30.70
2022-09-02T16:47:44.013Z,30.70
2022-09-02T16:50:12.840Z,30.80
2022-09-02T16:52:41.123Z,30.80
2022-09-02T16:55:08.668Z,31.00
2022-09-02T16:57:35.998Z,31.10
2022-09-02T17:00:04.325Z,31.10
2022-09-02T17:02:31.353Z,31.10
2022-09-02T17:04:58.326Z,31.10
2022-09-02T17:07:25.330Z,31.10
2022-09-02T17:09:52.462Z,31.10
2022-09-02T17:12:22.285Z,31.20
2022-09-02T17:14:49.427Z,31.30
2022-09-02T17:17:17.400Z,31.20
2022-09-02T17:19:45.009Z,31.20
2022-09-02T17:22:12.369Z,31.20
2022-09-02T17:24:42.138Z,30.90
2022-09-02T17:27:11.046Z,30.70
2022-09-02T17:29:55.430Z,30.50
2022-09-02T17:32:22.869Z,30.30
2022-09-02T17:34:50.925Z,29.90
2022-09-02T17:37:18.510Z,29.80
2022-09-02T17:39:46.190Z,29.70
2022-09-02T17:42:14.389Z,29.50
2022-09-02T17:44:43.056Z,29.40
2022-09-02T17:47:14.312Z,29.20
2022-09-02T17:49:44.936Z,29.10
2022-09-02T17:52:23.369Z,28.90
2022-09-02T17:54:52.521Z,28.80
2022-09-02T17:58:05.927Z,28.70
2022-09-02T18:00:38.765Z,28.60
2022-09-02T18:03:18.004Z,28.50
2022-09-02T18:06:13.521Z,28.40
2022-09-02T18:08:43.715Z,28.40
2022-09-02T18:11:13.744Z,28.20
2022-09-02T18:14:15.128Z,28.20
2022-09-02T18:17:02.946Z,28.10
2022-09-02T18:20:01.946Z,28.00
2022-09-02T18:22:56.549Z,28.00
2022-09-02T18:25:51.153Z,27.90
2022-09-02T18:28:46.638Z,27.80
2022-09-02T18:31:23.052Z,27.70
2022-09-02T18:34:22.899Z,27.60
2022-09-02T18:37:06.219Z,27.60
2022-09-02T18:40:25.471Z,27.50
2022-09-02T18:43:10.975Z,27.40
2022-09-02T18:45:52.013Z,27.40
2022-09-02T18:48:30.143Z,27.30
2022-09-02T18:51:04.639Z,27.30
2022-09-02T18:53:39.940Z,27.20
2022-09-02T18:56:10.377Z,27.20
2022-09-02T18:58:44.192Z,27.10
2022-09-02T19:01:25.948Z,27.10
2022-09-02T19:03:53.502Z,27.00
2022-09-02T19:06:23.485Z,26.90
2022-09-02T19:08:59.054Z,26.90
2022-09-02T19:11:29.114Z,26.90
2022-09-02T19:14:03.180Z,26.80
2022-09-02T19:16:37.287Z,26.70
2022-09-02T19:19:06.645Z,26.70
2022-09-02T19:21:50.201Z,26.70
2022-09-02T19:24:28.590Z,26.60
2022-09-02T19:27:03.010Z,26.50
2022-09-02T19:29:35.172Z,26.50
2022-09-02T19:32:02.803Z,26.40
2022-09-02T19:34:35.644Z,26.40
2022-09-02T19:37:05.321Z,26.30
2022-09-02T19:39:33.956Z,26.20
2022-09-02T19:42:01.578Z,26.20
2022-09-02T19:44:29.036Z,26.20
2022-09-02T19:47:49.808Z,26.10
2022-09-02T19:49:44.712Z,26.10
2022-09-02T19:52:12.307Z,26.00
2022-09-02T19:54:41.391Z,25.90
2022-09-02T19:57:08.371Z,25.90
2022-09-02T19:59:35.429Z,25.90
2022-09-02T20:02:04.572Z,25.80
2022-09-02T20:04:33.319Z,25.80
2022-09-02T20:07:01.093Z,25.70
2022-09-02T20:09:29.402Z,25.60
2022-09-02T20:11:57.079Z,25.60
2022-09-02T20:14:24.933Z,25.50
2022-09-02T20:16:58.210Z,25.50
2022-09-02T20:19:26.528Z,25.50
2022-09-02T20:21:53.793Z,25.40
2022-09-02T20:24:31.516Z,25.40
2022-09-02T20:27:05.346Z,25.30
2022-09-02T20:30:00.552Z,25.20
2022-09-02T20:32:33.399Z,25.20
2022-09-02T20:35:15.084Z,25.10
2022-09-02T20:38:06.445Z,25.10
2022-09-02T20:40:45.859Z,25.10
2022-09-02T20:43:49.906Z,25.00
2022-09-02T20:46:20.033Z,25.00
2022-09-02T20:49:01.563Z,25.00
2022-09-02T20:52:05.525Z,24.80
2022-09-02T20:54:53.125Z,24.80
2022-09-02T20:57:26.086Z,24.70
2022-09-02T21:00:10.149Z,24.70
2022-09-02T21:03:08.069Z,24.60
2022-09-02T21:05:41.434Z,24.60
2022-09-02T21:08:24.743Z,24.50
2022-09-02T21:10:56.409Z,24.40
2022-09-02T21:13:48.020Z,24.40
2022-09-02T21:16:20.182Z,24.30
2022-09-02T21:19:06.107Z,24.30
2022-09-02T21:21:49.491Z,24.20
2022-09-02T21:24:38.708Z,24.20
2022-09-02T21:27:22.865Z,24.10
2022-09-02T21:30:03.072Z,24.10
2022-09-02T21:33:02.311Z,24.10
2022-09-02T21:35:49.131Z,24.00
2022-09-02T21:38:27.417Z,24.00
2022-09-02T21:41:22.651Z,24.00
2022-09-02T21:44:16.743Z,24.00
2022-09-02T21:47:08.889Z,23.90
2022-09-02T21:49:38.882Z,23.80
2022-09-02T21:52:15.331Z,23.80
2022-09-02T21:55:06.932Z,23.80
2022-09-02T21:57:51.646Z,23.70
2022-09-02T22:00:21.076Z,23.70
2022-09-02T22:03:04.227Z,23.60
2022-09-02T22:06:05.323Z,23.60
2022-09-02T22:08:33.605Z,23.60
2022-09-02T22:11:21.987Z,23.50
2022-09-02T22:13:49.216Z,23.40
2022-09-02T22:16:39.610Z,23.40
2022-09-02T22:19:10.130Z,23.40
2022-09-02T22:21:50.324Z,23.30
2022-09-02T22:24:19.630Z,23.30
2022-09-02T22:27:03.060Z,23.20
2022-09-02T22:29:45.714Z,23.30
2022-09-02T22:32:20.205Z,23.20
2022-09-02T22:34:58.202Z,23.20
2022-09-02T22:37:37.644Z,23.10
2022-09-02T22:40:09.140Z,23.10
2022-09-02T22:42:40.041Z,23.20
2022-09-02T22:45:35.245Z,23.10
2022-09-02T22:48:36.668Z,23.10
2022-09-02T22:51:31.943Z,23.10
2022-09-02T22:53:59.009Z,23.00
2022-09-02T22:56:35.206Z,22.90
2022-09-02T22:59:09.556Z,22.90
2022-09-02T23:01:59.841Z,22.90
2022-09-02T23:04:30.020Z,22.90
2022-09-02T23:07:01.742Z,22.80
2022-09-02T23:09:28.806Z,22.80
2022-09-02T23:12:48.226Z,22.80
2022-09-02T23:15:30.037Z,22.80
2022-09-02T23:18:13.563Z,22.80
2022-09-02T23:20:45.495Z,22.70
2022-09-02T23:23:46.916Z,22.70
2022-09-02T23:26:33.945Z,22.60
2022-09-02T23:29:24.339Z,22.60
2022-09-02T23:35:37.713Z,22.60
2022-09-02T23:38:24.448Z,22.50
2022-09-02T23:41:10.169Z,22.50
2022-09-02T23:43:39.762Z,22.50
2022-09-02T23:46:10.187Z,22.40
2022-09-02T23:49:05.499Z,22.30
2022-09-02T23:51:56.903Z,22.30
2022-09-02T23:54:34.858Z,22.30
2022-09-02T23:57:15.181Z,22.20
